CYXY

Whitehorse / Erik Nielsen International Airport

Whitehorse, , Canada
METAR CYXY 170800Z 16020G29KT 15SM DRSN FEW015 BKN069 OVC110 M05/M08 A3005 RMK SF1AC5AC2 SLP231
Observed Flight Rules
Nov-17 @ 08:00 UTC (57 minutes ago) Visual Flight Rules
Wind Visibility Clouds Conditions
160° at 20 knots
 Gusting to 29 knots
15 miles
  • Few at 1,500' AGL
  • Broken at 6,900' AGL
  • Overcast at 11,000' AGL
  • Low drifting
  • Snow
Temperatures Readings
Current -5°C / 23°F
Dewpoint -8°C / 18°F
Humidity 80%
Altimeter 30.05" Hg
Pressure 1023.1 hPa
Elevation 703
METAR CYXY 170800Z 16020G29KT 15SM DRSN FEW015 BKN069 OVC110 M05/M08 A3005 RMK SF1AC5AC2 SLP231
Observed Flight Rules
Nov-17 @ 08:00 UTC
(57 minutes ago)
VFR
Wind Visibility
160° at 20 knots
 Gusting to 29 knots
15 miles
Clouds
  • Few at 1,500' AGL
  • Broken at 6,900' AGL
  • Overcast at 11,000' AGL
Conditions
  • Low drifting
  • Snow
Temperature Dewpoint
-5°C / 23°F -8°C / 18°F
Humidity Altimeter Pressure
80% 30.05" Hg 1023.1 hPa